Time;durP1;ratioP1;P1;durP2;ratioP2;P2;SDS_P1;SDS_P2;PMS_P1;PMS_P2;Temp;Humidity;BMP_temperature;BMP_pressure;BME280_temperature;BME280_humidity;BME280_pressure;Samples;Min_cycle;Max_cycle;Signal;HPM_P1;HPM_P2
2023/10/28 00:01:27;;;;;;;16.02;6.72;;;9.80;99.90;;;;;;6276370;22;20046;-83
2023/10/28 00:03:54;;;;;;;16.73;6.22;;;9.80;99.90;;;;;;6275568;22;20015;-83
2023/10/28 00:06:19;;;;;;;15.43;7.13;;;9.80;99.90;;;;;;6276163;22;20090;-83
2023/10/28 00:08:45;;;;;;;20.40;7.68;;;9.80;99.90;;;;;;6276001;22;20498;-83
2023/10/28 00:11:11;;;;;;;15.50;6.85;;;9.80;99.90;;;;;;6302705;22;20014;-83
2023/10/28 00:13:37;;;;;;;16.42;6.22;;;9.80;99.90;;;;;;6303242;22;20027;-83
2023/10/28 00:16:02;;;;;;;15.23;6.75;;;9.80;99.90;;;;;;6304237;22;20019;-82
2023/10/28 00:18:28;;;;;;;16.98;6.68;;;9.80;99.90;;;;;;6275269;22;20038;-83
2023/10/28 00:20:55;;;;;;;21.95;6.78;;;9.70;99.90;;;;;;6276009;22;20041;-83
2023/10/28 00:23:20;;;;;;;18.13;6.35;;;9.70;99.90;;;;;;6303415;22;20011;-83
2023/10/28 00:25:46;;;;;;;14.45;6.53;;;9.70;99.90;;;;;;6302700;22;20018;-83
2023/10/28 00:28:12;;;;;;;12.80;6.35;;;9.70;99.90;;;;;;6303209;22;20144;-83
2023/10/28 00:30:39;;;;;;;12.93;6.05;;;9.70;99.90;;;;;;6303532;22;20011;-83
2023/10/28 00:33:05;;;;;;;14.48;6.15;;;9.70;99.90;;;;;;6302607;22;20082;-82
2023/10/28 00:35:31;;;;;;;14.70;6.57;;;9.60;99.90;;;;;;6303521;22;20035;-83
2023/10/28 00:37:57;;;;;;;11.43;5.43;;;9.60;99.90;;;;;;6303063;22;20115;-83
2023/10/28 00:40:30;;;;;;;15.23;5.28;;;9.60;99.90;;;;;;6303539;22;20015;-83
2023/10/28 00:42:57;;;;;;;12.25;4.90;;;9.60;99.90;;;;;;6303004;22;20050;-83
2023/10/28 00:45:23;;;;;;;15.95;6.82;;;9.60;99.90;;;;;;6301067;22;20011;-83
2023/10/28 00:47:49;;;;;;;13.73;5.65;;;9.60;99.90;;;;;;6303225;22;20013;-83
2023/10/28 00:50:15;;;;;;;11.27;6.05;;;9.50;99.90;;;;;;6303999;22;20023;-83
2023/10/28 00:52:45;;;;;;;10.90;5.72;;;9.50;99.90;;;;;;6303231;22;20069;-83
2023/10/28 00:55:12;;;;;;;13.05;6.72;;;9.50;99.90;;;;;;6305343;22;20007;-83
2023/10/28 00:57:39;;;;;;;11.45;6.45;;;9.40;99.90;;;;;;6306337;22;20391;-83
2023/10/28 01:00:06;;;;;;;10.02;5.07;;;9.40;99.90;;;;;;6305278;22;20011;-83
2023/10/28 01:02:39;;;;;;;10.65;5.35;;;9.40;99.90;;;;;;6305513;22;20060;-83
2023/10/28 01:05:09;;;;;;;13.77;6.60;;;9.30;99.90;;;;;;6306193;22;20378;-83
2023/10/28 01:07:36;;;;;;;8.85;3.65;;;9.30;99.90;;;;;;6304488;22;20011;-82
2023/10/28 01:10:03;;;;;;;12.70;5.50;;;9.30;99.90;;;;;;6278068;22;20019;-83
2023/10/28 01:12:29;;;;;;;16.70;6.88;;;9.20;99.90;;;;;;6277579;22;20447;-83
2023/10/28 01:14:56;;;;;;;10.30;4.82;;;9.20;99.90;;;;;;6277087;22;20018;-83
2023/10/28 01:17:25;;;;;;;11.80;5.55;;;9.20;99.90;;;;;;6277466;22;20011;-83
2023/10/28 01:19:52;;;;;;;14.95;6.45;;;9.20;99.90;;;;;;6251608;22;20011;-83
2023/10/28 01:22:19;;;;;;;12.95;5.05;;;9.20;99.90;;;;;;6278040;22;20068;-83
2023/10/28 01:24:45;;;;;;;11.80;4.50;;;9.20;99.90;;;;;;6304969;22;20022;-83
2023/10/28 01:27:11;;;;;;;15.98;4.82;;;9.20;99.90;;;;;;6276564;22;20073;-83
2023/10/28 01:29:37;;;;;;;10.65;4.88;;;9.10;99.90;;;;;;6305073;22;20201;-83
2023/10/28 01:32:03;;;;;;;14.75;5.38;;;9.20;99.90;;;;;;6305251;22;20440;-83
2023/10/28 01:34:30;;;;;;;11.73;5.82;;;9.20;99.90;;;;;;6304461;22;20003;-82
2023/10/28 01:36:56;;;;;;;15.82;5.07;;;9.20;99.90;;;;;;6305223;22;20015;-83
2023/10/28 01:39:22;;;;;;;13.27;4.82;;;9.20;99.90;;;;;;6304759;22;20011;-82
2023/10/28 01:41:49;;;;;;;13.25;5.90;;;9.20;99.90;;;;;;6304588;22;20013;-83
2023/10/28 01:44:16;;;;;;;9.65;4.47;;;9.10;99.90;;;;;;6304971;22;20350;-82
2023/10/28 01:46:42;;;;;;;12.55;5.68;;;9.10;99.90;;;;;;6304518;22;20011;-82
2023/10/28 01:49:10;;;;;;;12.73;5.75;;;9.10;99.90;;;;;;6302785;22;20145;-83
2023/10/28 01:51:36;;;;;;;7.07;4.13;;;9.10;99.90;;;;;;6277516;22;20116;-83
2023/10/28 01:54:02;;;;;;;9.20;4.05;;;9.10;99.90;;;;;;6305455;22;20018;-83
2023/10/28 01:56:28;;;;;;;16.10;5.95;;;9.00;99.90;;;;;;6304143;22;20019;-83
2023/10/28 01:58:55;;;;;;;11.02;4.70;;;9.00;99.90;;;;;;6304272;22;20065;-83
2023/10/28 02:01:25;;;;;;;7.30;3.80;;;9.00;99.90;;;;;;6305026;22;20007;-83
2023/10/28 02:03:51;;;;;;;9.25;4.65;;;9.00;99.90;;;;;;6304332;22;20301;-83
2023/10/28 02:06:17;;;;;;;10.48;5.13;;;9.00;99.90;;;;;;6305005;22;20419;-83
2023/10/28 02:08:43;;;;;;;10.40;5.00;;;9.00;99.90;;;;;;6305543;22;20043;-83
2023/10/28 02:11:08;;;;;;;11.48;5.30;;;8.90;99.90;;;;;;6304681;22;20665;-83
2023/10/28 02:13:35;;;;;;;10.27;4.55;;;9.00;99.90;;;;;;6304832;22;20632;-83
2023/10/28 02:16:01;;;;;;;14.48;6.22;;;9.00;99.90;;;;;;6304743;22;20076;-83
2023/10/28 02:18:27;;;;;;;11.57;4.72;;;9.00;99.90;;;;;;6305610;22;20076;-83
2023/10/28 02:20:55;;;;;;;9.15;4.95;;;9.00;99.90;;;;;;6277429;22;20023;-82
2023/10/28 02:23:21;;;;;;;11.80;4.80;;;9.00;99.90;;;;;;6302921;22;20019;-82
2023/10/28 02:25:46;;;;;;;10.20;4.00;;;8.90;99.90;;;;;;6303291;22;20068;-82
2023/10/28 02:28:13;;;;;;;7.82;3.35;;;8.90;99.90;;;;;;6277298;22;20145;-82
2023/10/28 02:30:40;;;;;;;6.78;4.05;;;8.90;99.90;;;;;;6303308;22;20007;-83
2023/10/28 02:33:07;;;;;;;7.18;3.42;;;9.00;99.90;;;;;;6277009;22;20020;-82
2023/10/28 02:35:33;;;;;;;7.20;3.72;;;9.00;99.90;;;;;;6276998;22;20321;-83
2023/10/28 02:37:59;;;;;;;11.57;3.42;;;9.00;99.90;;;;;;6303830;22;20086;-83
2023/10/28 02:40:25;;;;;;;10.52;3.58;;;9.00;99.90;;;;;;6304333;22;20404;-83
2023/10/28 02:42:51;;;;;;;9.40;3.95;;;9.00;99.90;;;;;;6304705;22;20082;-82
2023/10/28 02:45:16;;;;;;;8.07;3.53;;;9.00;99.90;;;;;;6303694;22;20228;-83
2023/10/28 02:47:42;;;;;;;8.95;3.58;;;9.00;99.90;;;;;;6304596;22;20011;-83
2023/10/28 02:50:08;;;;;;;9.70;3.80;;;9.00;99.90;;;;;;6303331;22;20043;-83
2023/10/28 02:52:34;;;;;;;9.30;4.38;;;9.00;99.90;;;;;;6302479;22;20012;-82
2023/10/28 02:55:00;;;;;;;7.97;3.67;;;9.00;99.90;;;;;;6304415;22;20011;-83
2023/10/28 02:57:26;;;;;;;7.90;3.80;;;9.00;99.90;;;;;;6303958;22;20478;-82
2023/10/28 02:59:51;;;;;;;7.68;3.63;;;9.00;99.90;;;;;;6303547;22;20328;-82
2023/10/28 03:02:17;;;;;;;10.90;3.75;;;9.00;99.90;;;;;;6276354;22;20015;-82
2023/10/28 03:04:43;;;;;;;6.18;3.35;;;9.00;99.90;;;;;;6276772;22;20034;-82
2023/10/28 03:07:09;;;;;;;7.40;3.15;;;9.00;99.90;;;;;;6275836;22;20424;-82
2023/10/28 03:09:35;;;;;;;8.23;2.35;;;9.10;99.90;;;;;;6276778;22;20011;-83
2023/10/28 03:12:00;;;;;;;4.47;2.97;;;9.10;99.90;;;;;;6303251;22;20017;-82
2023/10/28 03:14:26;;;;;;;6.57;3.13;;;9.10;99.90;;;;;;6303830;22;20083;-83
2023/10/28 03:16:52;;;;;;;10.63;4.45;;;9.10;99.90;;;;;;6303973;22;20050;-83
2023/10/28 03:19:17;;;;;;;9.00;4.72;;;9.00;99.90;;;;;;6303450;22;20022;-83
2023/10/28 03:21:43;;;;;;;8.77;3.83;;;9.00;99.90;;;;;;6304253;22;20015;-82
2023/10/28 03:24:09;;;;;;;7.85;3.75;;;9.00;99.90;;;;;;6276111;22;20022;-82
2023/10/28 03:26:35;;;;;;;7.70;3.78;;;8.90;99.90;;;;;;6275702;22;20015;-83
2023/10/28 03:29:01;;;;;;;12.77;3.88;;;8.90;99.90;;;;;;6276255;22;20026;-83
2023/10/28 03:31:26;;;;;;;6.68;2.67;;;8.90;99.90;;;;;;6276471;22;20043;-82
2023/10/28 03:33:54;;;;;;;11.60;4.30;;;8.90;99.90;;;;;;6303570;22;20603;-82
2023/10/28 03:36:19;;;;;;;6.10;3.33;;;8.80;99.90;;;;;;6305016;22;20015;-83
2023/10/28 03:38:45;;;;;;;5.55;3.10;;;8.80;99.90;;;;;;6304833;22;20022;-83
2023/10/28 03:41:12;;;;;;;10.13;3.42;;;8.90;99.90;;;;;;6275700;22;20542;-83
2023/10/28 03:43:39;;;;;;;7.22;3.35;;;8.90;99.90;;;;;;6304267;22;20011;-82
2023/10/28 03:46:04;;;;;;;8.68;3.38;;;8.80;99.90;;;;;;6304166;22;20472;-83
2023/10/28 03:48:31;;;;;;;7.78;3.50;;;8.80;99.90;;;;;;6303245;22;20016;-82
2023/10/28 03:51:04;;;;;;;13.02;3.80;;;8.90;99.90;;;;;;6303948;22;20015;-83
2023/10/28 03:53:30;;;;;;;10.60;3.60;;;8.80;99.90;;;;;;6302332;22;20015;-89
2023/10/28 03:55:55;;;;;;;8.77;3.03;;;8.90;99.90;;;;;;6275340;22;20068;-83
2023/10/28 03:58:22;;;;;;;11.65;4.55;;;8.90;99.90;;;;;;6302873;22;20090;-82
2023/10/28 04:00:54;;;;;;;5.82;3.42;;;8.90;99.90;;;;;;6275981;22;20093;-82
2023/10/28 04:03:21;;;;;;;7.43;3.70;;;8.90;99.90;;;;;;6303358;22;20436;-82
2023/10/28 04:05:50;;;;;;;13.35;3.92;;;8.90;99.90;;;;;;6303531;22;20015;-82
2023/10/28 04:08:16;;;;;;;6.33;3.47;;;8.90;99.90;;;;;;6302601;22;20007;-82
2023/10/28 04:10:42;;;;;;;9.77;4.68;;;8.90;99.90;;;;;;6303812;22;20268;-83
2023/10/28 04:13:08;;;;;;;9.45;3.88;;;8.90;99.90;;;;;;6303933;22;20011;-83
2023/10/28 04:15:36;;;;;;;5.88;3.22;;;9.00;99.90;;;;;;6303166;22;20038;-83
2023/10/28 04:18:02;;;;;;;5.60;3.22;;;9.00;99.90;;;;;;6303309;22;20140;-83
2023/10/28 04:20:28;;;;;;;7.28;4.25;;;9.00;99.90;;;;;;6303952;22;20042;-83
2023/10/28 04:22:54;;;;;;;9.85;4.30;;;9.10;99.90;;;;;;6303021;22;20015;-82
2023/10/28 04:25:19;;;;;;;7.70;3.40;;;9.10;99.90;;;;;;6303521;22;20012;-82
2023/10/28 04:27:45;;;;;;;7.20;3.65;;;9.20;99.90;;;;;;6303290;22;20076;-82
2023/10/28 04:30:11;;;;;;;7.20;3.58;;;9.20;99.90;;;;;;6302179;22;20029;-83
2023/10/28 04:32:38;;;;;;;5.28;2.90;;;9.20;99.90;;;;;;6303656;22;20030;-82
2023/10/28 04:35:05;;;;;;;6.18;3.47;;;9.20;99.90;;;;;;6308978;22;20378;-82
2023/10/28 04:37:31;;;;;;;8.68;3.70;;;9.20;99.90;;;;;;6301973;22;20015;-82
2023/10/28 04:39:57;;;;;;;7.03;4.10;;;9.20;99.90;;;;;;6275874;22;20041;-83
2023/10/28 04:42:23;;;;;;;12.43;5.40;;;9.20;99.90;;;;;;6276032;22;20014;-83
2023/10/28 04:44:49;;;;;;;8.70;3.72;;;9.20;99.90;;;;;;6275314;22;20018;-82
2023/10/28 04:47:14;;;;;;;7.60;3.83;;;9.30;99.90;;;;;;6302934;22;20011;-83
2023/10/28 04:49:41;;;;;;;6.85;3.72;;;9.20;99.90;;;;;;6307354;22;20008;-82
2023/10/28 04:52:08;;;;;;;7.70;3.45;;;9.20;99.90;;;;;;6277504;22;20049;-82
2023/10/28 04:54:35;;;;;;;10.05;3.22;;;9.20;99.90;;;;;;6276128;22;20278;-82
2023/10/28 04:57:02;;;;;;;7.88;4.40;;;9.20;99.90;;;;;;6273659;22;20023;-82
2023/10/28 04:59:29;;;;;;;12.45;4.25;;;9.10;99.90;;;;;;6275210;22;20016;-82
2023/10/28 05:01:55;;;;;;;11.32;4.00;;;9.10;99.90;;;;;;6275518;22;20019;-82
2023/10/28 05:04:24;;;;;;;9.20;3.72;;;9.10;99.90;;;;;;6301968;22;20043;-82
2023/10/28 05:06:51;;;;;;;8.15;4.85;;;9.10;99.90;;;;;;6281252;22;20608;-83
2023/10/28 05:09:20;;;;;;;6.75;3.60;;;9.10;99.90;;;;;;6275632;22;20011;-83
2023/10/28 05:11:47;;;;;;;10.35;4.10;;;9.10;99.90;;;;;;6274418;22;20499;-83
2023/10/28 05:14:14;;;;;;;6.60;3.05;;;9.10;99.90;;;;;;6275134;22;20070;-83
2023/10/28 05:16:40;;;;;;;7.93;4.13;;;9.20;99.90;;;;;;6275083;22;20015;-82
2023/10/28 05:19:06;;;;;;;7.70;3.50;;;9.20;99.90;;;;;;6274401;22;20025;-83
2023/10/28 05:21:32;;;;;;;6.68;3.58;;;9.20;99.90;;;;;;6275541;22;20015;-83
2023/10/28 05:23:58;;;;;;;12.20;4.78;;;9.30;99.90;;;;;;6275849;22;20019;-83
2023/10/28 05:26:23;;;;;;;10.73;4.20;;;9.30;99.90;;;;;;6301761;22;20011;-83
2023/10/28 05:28:51;;;;;;;4.82;3.35;;;9.30;99.90;;;;;;6302786;22;20014;-83
2023/10/28 05:31:17;;;;;;;7.47;4.55;;;9.40;99.90;;;;;;6302831;22;20035;-82
2023/10/28 05:33:43;;;;;;;8.85;4.47;;;9.40;99.90;;;;;;6301152;22;20019;-83
2023/10/28 05:36:08;;;;;;;7.53;3.85;;;9.40;99.90;;;;;;6275407;22;20021;-83
2023/10/28 05:38:34;;;;;;;8.57;4.22;;;9.40;99.90;;;;;;6303647;22;20017;-83
2023/10/28 05:41:00;;;;;;;8.45;3.75;;;9.40;99.90;;;;;;6303349;22;20015;-83
2023/10/28 05:43:26;;;;;;;15.85;4.28;;;9.50;99.90;;;;;;6276890;22;20047;-83
2023/10/28 05:45:51;;;;;;;12.90;4.78;;;9.50;99.90;;;;;;6275615;22;20073;-83
2023/10/28 05:48:17;;;;;;;8.25;3.13;;;9.60;99.90;;;;;;6276601;22;20023;-83
2023/10/28 05:50:43;;;;;;;10.70;3.95;;;9.60;99.90;;;;;;6276657;22;20011;-83
2023/10/28 05:53:09;;;;;;;10.15;3.90;;;9.60;99.90;;;;;;6303091;22;20047;-83
2023/10/28 05:55:34;;;;;;;8.18;3.70;;;9.60;99.90;;;;;;6304696;22;20011;-83
2023/10/28 05:58:00;;;;;;;8.10;4.00;;;9.60;99.90;;;;;;6303856;22;20034;-83
2023/10/28 06:00:28;;;;;;;8.85;3.60;;;9.50;99.90;;;;;;6302389;22;20355;-82
2023/10/28 06:02:54;;;;;;;9.05;4.32;;;9.50;99.90;;;;;;6277298;22;20025;-83
2023/10/28 06:05:20;;;;;;;9.07;4.30;;;9.50;99.90;;;;;;6276534;22;20090;-82
2023/10/28 06:07:49;;;;;;;6.97;3.83;;;9.50;99.90;;;;;;6303917;22;20015;-83
2023/10/28 06:10:15;;;;;;;9.50;4.88;;;9.40;99.90;;;;;;6304664;22;20047;-83
2023/10/28 06:12:41;;;;;;;9.18;3.47;;;9.40;99.90;;;;;;6304897;22;20359;-82
2023/10/28 06:15:07;;;;;;;11.65;3.70;;;9.40;99.90;;;;;;6304737;22;20327;-82
2023/10/28 06:17:35;;;;;;;6.88;3.90;;;9.40;99.90;;;;;;6305705;22;20007;-83
2023/10/28 06:20:01;;;;;;;8.00;3.33;;;9.40;99.90;;;;;;6304802;22;20015;-83
2023/10/28 06:22:27;;;;;;;9.60;4.47;;;9.40;99.90;;;;;;6303406;22;20011;-82
2023/10/28 06:24:54;;;;;;;7.07;3.40;;;9.40;99.90;;;;;;6304896;22;20014;-82
2023/10/28 06:27:22;;;;;;;4.03;2.60;;;9.40;99.90;;;;;;6304312;22;20022;-83
2023/10/28 06:29:47;;;;;;;7.65;3.38;;;9.40;99.90;;;;;;6303494;22;20023;-84
2023/10/28 06:32:13;;;;;;;5.03;3.05;;;9.50;99.90;;;;;;6276887;22;20011;-83
2023/10/28 06:34:40;;;;;;;10.65;3.47;;;9.40;99.90;;;;;;6304021;22;20045;-82
2023/10/28 06:37:05;;;;;;;10.63;2.78;;;9.50;99.90;;;;;;6303891;22;20019;-83
2023/10/28 06:39:34;;;;;;;5.35;3.20;;;9.50;99.90;;;;;;6303921;22;20053;-83
2023/10/28 06:42:01;;;;;;;11.88;3.45;;;9.50;99.90;;;;;;6303637;22;20015;-83
2023/10/28 06:44:27;;;;;;;9.32;3.65;;;9.50;99.90;;;;;;6304312;22;20092;-83
2023/10/28 06:46:53;;;;;;;4.60;3.25;;;9.50;99.90;;;;;;6276525;22;20440;-82
2023/10/28 06:49:19;;;;;;;8.57;3.38;;;9.50;99.90;;;;;;6302804;22;20023;-83
2023/10/28 06:51:45;;;;;;;8.15;4.28;;;9.50;99.90;;;;;;6304188;22;20015;-82
2023/10/28 06:54:11;;;;;;;10.90;2.92;;;9.50;99.90;;;;;;6304157;22;20007;-82
2023/10/28 06:56:37;;;;;;;6.68;3.28;;;9.50;99.90;;;;;;6303299;22;20015;-82
2023/10/28 06:59:02;;;;;;;6.07;2.97;;;9.50;99.90;;;;;;6303966;22;20019;-82
2023/10/28 07:01:28;;;;;;;4.10;2.60;;;9.60;99.90;;;;;;6276192;22;20018;-83
2023/10/28 07:03:54;;;;;;;4.13;2.10;;;9.60;99.90;;;;;;6302630;22;20015;-82
2023/10/28 07:06:20;;;;;;;7.45;2.65;;;9.70;99.90;;;;;;6276942;22;20021;-83
2023/10/28 07:08:46;;;;;;;10.63;3.00;;;9.70;99.90;;;;;;6304828;22;20089;-82
2023/10/28 07:11:13;;;;;;;4.80;2.55;;;9.70;99.90;;;;;;6301167;22;20011;-83
2023/10/28 07:13:39;;;;;;;5.75;2.15;;;9.80;99.90;;;;;;6304249;22;20366;-83
2023/10/28 07:16:05;;;;;;;4.43;2.15;;;9.80;99.90;;;;;;6307309;22;20473;-83
2023/10/28 07:18:32;;;;;;;4.30;2.30;;;9.90;99.90;;;;;;6303062;22;20403;-82
2023/10/28 07:20:58;;;;;;;8.40;2.97;;;9.90;99.90;;;;;;6302534;22;20510;-82
2023/10/28 07:23:26;;;;;;;7.13;2.90;;;10.00;99.90;;;;;;6303679;22;20022;-81
2023/10/28 07:25:56;;;;;;;5.07;2.22;;;10.00;99.90;;;;;;6303107;22;20022;-82
2023/10/28 07:28:24;;;;;;;5.40;2.92;;;10.10;99.90;;;;;;6303714;22;20011;-83
2023/10/28 07:30:51;;;;;;;4.05;2.08;;;10.10;99.90;;;;;;6302434;22;20440;-82
2023/10/28 07:33:20;;;;;;;6.53;2.30;;;10.10;99.90;;;;;;6304992;22;20093;-82
2023/10/28 07:35:47;;;;;;;7.30;2.50;;;10.10;99.90;;;;;;6304838;22;20017;-82
2023/10/28 07:38:14;;;;;;;5.03;2.20;;;10.20;99.90;;;;;;6303142;22;20019;-87
2023/10/28 07:40:41;;;;;;;5.43;2.15;;;10.20;99.90;;;;;;6275781;22;20022;-83
2023/10/28 07:43:07;;;;;;;4.78;2.45;;;10.20;99.90;;;;;;6303678;22;20549;-82
2023/10/28 07:45:33;;;;;;;5.95;2.97;;;10.20;99.90;;;;;;6302437;22;20072;-82
2023/10/28 07:47:59;;;;;;;6.85;2.92;;;10.20;99.90;;;;;;6302838;22;20007;-82
2023/10/28 07:50:25;;;;;;;6.47;2.35;;;10.30;99.90;;;;;;6275801;22;20030;-83
2023/10/28 07:52:51;;;;;;;8.27;2.80;;;10.30;99.90;;;;;;6302681;22;20030;-83
2023/10/28 07:55:16;;;;;;;3.15;2.20;;;10.30;99.90;;;;;;6303116;22;20011;-83
2023/10/28 07:57:43;;;;;;;5.65;2.03;;;10.40;99.90;;;;;;6302710;22;20051;-83
2023/10/28 08:00:11;;;;;;;5.85;2.75;;;10.40;99.90;;;;;;6302725;22;20011;-83
2023/10/28 08:02:37;;;;;;;6.07;1.80;;;10.40;99.90;;;;;;6303007;22;20043;-83
2023/10/28 08:05:04;;;;;;;3.60;1.67;;;10.50;99.90;;;;;;6302184;22;20043;-82
2023/10/28 08:07:30;;;;;;;3.85;1.92;;;10.50;99.90;;;;;;6302090;22;20044;-82
2023/10/28 08:09:56;;;;;;;4.57;2.78;;;10.50;99.90;;;;;;6303148;22;20038;-82
2023/10/28 08:12:25;;;;;;;4.82;2.17;;;10.50;99.90;;;;;;6303405;22;20297;-83
2023/10/28 08:14:52;;;;;;;4.68;1.85;;;10.50;99.90;;;;;;6301859;22;20474;-82
2023/10/28 08:17:18;;;;;;;3.67;1.98;;;10.50;99.90;;;;;;6303056;22;20023;-83
2023/10/28 08:19:44;;;;;;;4.32;2.00;;;10.50;99.90;;;;;;6303599;22;20068;-83
2023/10/28 08:22:12;;;;;;;3.13;1.90;;;10.40;99.90;;;;;;6302259;22;20011;-83
2023/10/28 08:24:39;;;;;;;2.95;2.10;;;10.40;99.90;;;;;;6300213;22;20023;-82
2023/10/28 08:27:05;;;;;;;2.15;1.27;;;10.50;99.90;;;;;;6301707;22;20015;-91
2023/10/28 08:29:32;;;;;;;5.35;1.60;;;10.40;99.90;;;;;;6275485;22;20018;-83
2023/10/28 08:31:58;;;;;;;4.50;2.20;;;10.50;99.90;;;;;;6273497;22;20359;-82
2023/10/28 08:34:25;;;;;;;4.88;1.42;;;10.50;99.90;;;;;;6299949;22;20023;-83
2023/10/28 08:36:52;;;;;;;4.05;1.55;;;10.50;99.90;;;;;;6300925;22;20019;-83
2023/10/28 08:39:19;;;;;;;4.93;1.67;;;10.50;99.90;;;;;;6301312;22;20015;-82
2023/10/28 08:41:46;;;;;;;2.80;1.75;;;10.60;99.90;;;;;;6300250;22;20015;-83
2023/10/28 08:44:14;;;;;;;4.10;2.03;;;10.60;99.90;;;;;;6300291;22;20058;-83
2023/10/28 08:46:41;;;;;;;2.70;1.48;;;10.60;99.90;;;;;;6300702;22;20023;-82
2023/10/28 08:49:11;;;;;;;3.80;2.40;;;10.70;99.90;;;;;;6300246;22;20086;-82
2023/10/28 08:51:40;;;;;;;;;;;10.70;99.90;;;;;;6274866;22;20532;-81
2023/10/28 08:54:07;;;;;;;2.88;1.67;;;10.70;99.90;;;;;;6274439;22;19918;-82
2023/10/28 08:56:42;;;;;;;2.40;1.60;;;10.80;99.90;;;;;;6272939;22;20023;-82
2023/10/28 08:59:09;;;;;;;3.40;1.58;;;10.90;99.90;;;;;;6273187;22;20076;-82
2023/10/28 09:01:39;;;;;;;3.90;1.85;;;10.90;99.90;;;;;;6274216;22;20019;-81
2023/10/28 09:04:09;;;;;;;3.67;2.13;;;11.10;99.90;;;;;;6272241;22;20050;-81
2023/10/28 09:06:35;;;;;;;2.78;1.35;;;11.20;99.90;;;;;;6271503;22;20685;-82
2023/10/28 09:09:04;;;;;;;3.33;1.95;;;11.40;99.90;;;;;;6271574;22;20046;-83
2023/10/28 09:11:30;;;;;;;7.15;2.42;;;11.40;99.90;;;;;;6248676;22;20478;-82
2023/10/28 09:13:59;;;;;;;3.63;1.85;;;11.50;99.90;;;;;;6302296;22;20015;-81
2023/10/28 09:16:26;;;;;;;2.60;1.75;;;11.50;99.90;;;;;;6273368;22;20026;-81
2023/10/28 09:18:52;;;;;;;6.65;1.90;;;11.50;99.90;;;;;;6301982;22;20015;-81
2023/10/28 09:21:19;;;;;;;5.68;1.92;;;11.50;99.90;;;;;;6302622;22;20418;-80
2023/10/28 09:23:44;;;;;;;4.13;1.50;;;11.50;99.90;;;;;;6274048;22;20679;-81
2023/10/28 09:26:10;;;;;;;3.60;1.73;;;11.50;99.90;;;;;;6274388;22;20099;-81
2023/10/28 09:28:44;;;;;;;9.00;1.65;;;11.50;99.90;;;;;;6274280;22;20018;-81
2023/10/28 09:31:10;;;;;;;2.67;2.17;;;11.50;99.90;;;;;;6300068;22;20513;-82
2023/10/28 09:33:36;;;;;;;2.05;1.25;;;11.50;99.90;;;;;;6302000;22;20015;-81
2023/10/28 09:36:04;;;;;;;3.40;1.63;;;11.50;99.90;;;;;;6302617;22;20018;-81
2023/10/28 09:38:31;;;;;;;1.95;1.05;;;11.50;99.90;;;;;;6274126;22;20447;-82
2023/10/28 09:40:59;;;;;;;3.28;1.40;;;11.50;99.90;;;;;;6302957;22;20017;-82
2023/10/28 09:43:28;;;;;;;2.40;1.27;;;11.50;99.90;;;;;;6302692;22;20018;-82
2023/10/28 09:45:54;;;;;;;3.28;1.70;;;11.50;99.90;;;;;;6302090;22;20023;-81
2023/10/28 09:48:20;;;;;;;5.22;1.55;;;11.50;99.90;;;;;;6274510;22;20015;-81
2023/10/28 09:50:52;;;;;;;3.53;1.33;;;11.50;99.90;;;;;;6302902;22;20065;-81
2023/10/28 09:53:31;;;;;;;3.30;1.23;;;11.50;99.90;;;;;;6275604;22;20081;-81
2023/10/28 09:55:57;;;;;;;2.85;1.60;;;11.50;99.90;;;;;;6302311;22;20276;-81
2023/10/28 09:58:30;;;;;;;3.72;1.33;;;11.50;99.90;;;;;;6302093;22;20081;-82
2023/10/28 10:01:12;;;;;;;3.47;1.60;;;11.50;99.90;;;;;;6301380;22;20094;-83
2023/10/28 10:04:09;;;;;;;1.85;1.00;;;11.50;99.90;;;;;;6274714;22;20034;-81
2023/10/28 10:06:36;;;;;;;2.75;1.40;;;11.50;99.90;;;;;;6301781;22;20012;-82
2023/10/28 10:09:02;;;;;;;5.47;1.58;;;11.50;99.90;;;;;;6275134;22;20014;-81
2023/10/28 10:11:28;;;;;;;4.43;1.35;;;11.50;99.90;;;;;;6302573;22;20082;-81
2023/10/28 10:13:57;;;;;;;3.35;1.25;;;11.60;99.90;;;;;;6308608;22;20022;-81
2023/10/28 10:16:38;;;;;;;8.65;2.13;;;11.60;99.90;;;;;;6274962;22;20026;-81
2023/10/28 10:19:11;;;;;;;3.92;1.40;;;11.60;99.90;;;;;;6301683;22;20015;-81
2023/10/28 10:21:37;;;;;;;1.63;0.88;;;11.60;99.90;;;;;;6302411;22;20064;-82
2023/10/28 10:24:04;;;;;;;4.63;1.13;;;11.70;99.90;;;;;;6307470;22;20015;-81
2023/10/28 10:26:34;;;;;;;3.75;1.33;;;11.80;99.90;;;;;;6305243;22;20018;-84
2023/10/28 10:29:05;;;;;;;8.40;1.60;;;11.90;99.90;;;;;;6302010;22;20029;-80
2023/10/28 10:31:34;;;;;;;3.60;1.25;;;12.00;99.90;;;;;;6274606;22;20378;-80
2023/10/28 10:34:05;;;;;;;2.85;1.17;;;12.10;99.90;;;;;;6301353;22;20474;-81
2023/10/28 10:36:35;;;;;;;3.88;2.13;;;12.20;99.90;;;;;;6302435;22;20022;-82
2023/10/28 10:39:16;;;;;;;3.10;0.90;;;12.20;99.90;;;;;;6303086;22;20086;-83
2023/10/28 10:41:51;;;;;;;3.20;1.40;;;12.10;99.90;;;;;;6301757;22;20019;-83
2023/10/28 10:44:33;;;;;;;4.25;1.35;;;12.10;99.90;;;;;;6274387;22;20011;-82
2023/10/28 10:47:00;;;;;;;4.28;2.08;;;12.00;99.90;;;;;;6301077;22;20435;-83
2023/10/28 10:49:26;;;;;;;6.57;1.55;;;12.00;99.90;;;;;;6301359;22;20030;-82
2023/10/28 10:51:52;;;;;;;1.80;1.30;;;12.00;99.90;;;;;;6301889;22;20022;-82
2023/10/28 10:54:19;;;;;;;4.38;1.25;;;12.00;99.90;;;;;;6273894;22;20019;-82
2023/10/28 10:56:45;;;;;;;2.40;1.13;;;12.00;99.90;;;;;;6274674;22;20527;-80
2023/10/28 10:59:12;;;;;;;4.43;1.40;;;12.10;99.90;;;;;;6274349;22;20072;-82
2023/10/28 11:01:41;;;;;;;5.53;1.35;;;12.10;99.90;;;;;;6301565;22;20347;-81
2023/10/28 11:04:07;;;;;;;2.08;1.15;;;12.10;99.90;;;;;;6301797;22;20034;-86
2023/10/28 11:06:35;;;;;;;2.30;1.20;;;12.10;99.90;;;;;;6273949;22;20086;-82
2023/10/28 11:09:05;;;;;;;2.90;1.48;;;12.10;99.90;;;;;;6273679;22;20522;-81
2023/10/28 11:11:35;;;;;;;2.85;1.48;;;12.20;99.90;;;;;;6301953;22;20011;-81
2023/10/28 11:14:05;;;;;;;4.05;1.10;;;12.20;99.90;;;;;;6300402;22;20470;-81
2023/10/28 11:16:32;;;;;;;3.55;1.42;;;12.20;99.90;;;;;;6300017;22;20436;-81
2023/10/28 11:19:02;;;;;;;1.40;1.13;;;12.30;99.90;;;;;;6300536;22;20305;-83
2023/10/28 11:21:30;;;;;;;4.13;1.50;;;12.30;99.90;;;;;;6309474;22;20068;-81
2023/10/28 11:23:56;;;;;;;2.90;1.40;;;12.30;99.90;;;;;;6298109;22;20026;-87
2023/10/28 11:26:23;;;;;;;4.28;1.45;;;12.30;99.90;;;;;;6272637;22;20482;-84
2023/10/28 11:28:49;;;;;;;2.35;1.45;;;12.30;99.90;;;;;;6246821;22;20012;-85
2023/10/28 11:31:20;;;;;;;3.05;1.50;;;12.20;99.90;;;;;;6273646;22;20022;-84
2023/10/28 11:33:46;;;;;;;3.35;1.17;;;12.20;99.90;;;;;;6277956;22;20117;-88
2023/10/28 11:36:12;;;;;;;2.75;1.40;;;12.20;99.90;;;;;;6275243;22;20015;-85
2023/10/28 11:38:38;;;;;;;2.42;1.48;;;12.20;99.90;;;;;;6279084;22;20453;-90
2023/10/28 11:41:08;;;;;;;2.10;1.00;;;12.20;99.90;;;;;;6253312;22;20098;-90
2023/10/28 11:43:34;;;;;;;3.15;1.23;;;12.20;99.90;;;;;;6274383;22;20076;-80
2023/10/28 11:46:00;;;;;;;2.17;1.20;;;12.30;99.90;;;;;;6301033;22;20401;-80
2023/10/28 11:48:26;;;;;;;5.35;1.38;;;12.30;99.90;;;;;;6300791;22;20026;-80
2023/10/28 11:50:53;;;;;;;3.60;1.70;;;12.30;99.90;;;;;;6309079;22;20059;-81
2023/10/28 11:53:23;;;;;;;1.75;0.70;;;12.40;99.90;;;;;;6303130;22;20064;-81
2023/10/28 11:55:49;;;;;;;2.25;1.42;;;12.50;99.90;;;;;;6301509;22;20646;-82
2023/10/28 11:58:15;;;;;;;4.22;2.08;;;12.60;99.90;;;;;;6273214;22;20019;-83
2023/10/28 12:00:41;;;;;;;3.80;1.15;;;12.80;99.90;;;;;;6274485;22;20019;-82
2023/10/28 12:03:07;;;;;;;4.18;1.30;;;13.00;99.90;;;;;;6302278;22;20427;-83
2023/10/28 12:05:35;;;;;;;2.58;1.40;;;13.00;99.90;;;;;;6300389;22;20011;-83
2023/10/28 12:08:01;;;;;;;5.20;1.35;;;13.10;99.90;;;;;;6301236;22;20371;-82
2023/10/28 12:10:27;;;;;;;3.38;1.50;;;13.10;99.90;;;;;;6300883;22;20392;-84
2023/10/28 12:12:53;;;;;;;4.32;1.20;;;13.10;99.90;;;;;;6301042;22;20014;-86
2023/10/28 12:15:19;;;;;;;4.60;1.40;;;13.10;99.90;;;;;;6273772;22;20015;-83
2023/10/28 12:17:46;;;;;;;4.45;2.30;;;13.20;99.90;;;;;;6299236;22;20038;-84
2023/10/28 12:20:14;;;;;;;4.15;1.33;;;13.10;99.90;;;;;;6272851;22;20440;-82
2023/10/28 12:22:41;;;;;;;3.17;1.88;;;13.20;99.90;;;;;;6301553;22;20007;-81
2023/10/28 12:25:09;;;;;;;3.28;1.23;;;13.20;99.90;;;;;;6300061;22;20007;-80
2023/10/28 12:27:36;;;;;;;2.40;1.10;;;13.20;99.90;;;;;;6299685;22;20019;-80
2023/10/28 12:30:06;;;;;;;1.63;1.10;;;13.10;99.90;;;;;;6300449;22;20026;-81
2023/10/28 12:32:32;;;;;;;2.47;1.17;;;13.00;99.90;;;;;;6300720;22;20084;-80
2023/10/28 12:34:58;;;;;;;1.98;1.15;;;13.00;99.90;;;;;;6300728;22;20023;-83
2023/10/28 12:37:26;;;;;;;2.78;0.80;;;13.00;99.90;;;;;;6300718;22;20014;-83
2023/10/28 12:39:53;;;;;;;2.22;0.80;;;12.90;99.90;;;;;;6247263;22;20115;-80
2023/10/28 12:42:18;;;;;;;2.28;0.88;;;12.90;99.90;;;;;;6300509;22;20011;-80
2023/10/28 12:44:44;;;;;;;4.93;0.90;;;13.00;99.90;;;;;;6301122;22;20014;-80
2023/10/28 12:47:10;;;;;;;2.45;1.30;;;13.00;99.90;;;;;;6300508;22;20065;-80
2023/10/28 12:49:36;;;;;;;2.40;1.25;;;13.00;99.90;;;;;;6302871;22;20015;-80